Portada
METAR-TAF:

METAR-TAF

Aeropuertos :

Béziers, Francia

latitud: 43-19N, longitud: 003-21E, altitud: 17 m

Observación

El informe se hizo hace 20 horas y 27 minutos, a las 15:00 UTC
Viento 17 kt del noroeste
Temperatura 14°C
Humedad 58%
Presión 1009 hPa
Visibilidad 10 km o más
sin nubes por debajo de 1500 m y sin presencia de cumulonimbus.

METAR: LFMU 201500Z AUTO 32017KT CAVOK 14/06 Q1009 TEMPO 32020G30KT

Hora: 12:27 (11:27 UTC)

Pronóstico

El informe se hizo hace 21 horas y 27 minutos, a las 14:00 UTC
Pronóstico válido del 20 a las 15 UTC al 21 a las 15 UTC
Viento 12 kt del noroeste
Visibilidad 10 km o más
Nubes dispersas a una altura de 4500 ft
Temporalmente
del 20 a las 15 UTC al 20 a las 19 UTC
Viento 20 kt del noroeste con ráfagas de 30 kt

TAF: LFMU 201400Z 2015/2115 32012KT 9999 SCT045 TEMPO 2015/2019 32020G30KT

Observaciones y pronósticos meteorológicos de más de 4000 aeropuertos (mensajes METAR y TAF).

Los puntos amarillos y rojos representan las estaciones disponibles.

Ponga el ratón en el punto deseado para ver el nombre de la estación.

Haga clic para ver las observaciones y los pronósticos meteorológicos.

Para cambiar el mapa : haga clic en los botones verdes con una cruz de color negro para hacer un zoom, en el botón verde con un guión para alejar o en las flechas verdes para mapas adyacentes.


METAR-TAF: